sensor_id;sensor_type;location;lat;lon;timestamp;pressure;altitude;pressure_sealevel;temperature;humidity
9091;BME280;4581;42.416;25.598;2022-10-31T00:01:32;98596.59;;;16.55;55.88
9091;BME280;4581;42.416;25.598;2022-10-31T00:03:59;98587.78;;;16.53;56.05
9091;BME280;4581;42.416;25.598;2022-10-31T00:06:26;98592.63;;;16.51;55.88
9091;BME280;4581;42.416;25.598;2022-10-31T00:08:55;98589.47;;;16.54;56.09
9091;BME280;4581;42.416;25.598;2022-10-31T00:11:23;98583.81;;;16.49;55.99
9091;BME280;4581;42.416;25.598;2022-10-31T00:13:49;98590.34;;;16.48;56.78
9091;BME280;4581;42.416;25.598;2022-10-31T00:16:20;98594.53;;;16.44;55.69
9091;BME280;4581;42.416;25.598;2022-10-31T00:18:52;98599.53;;;16.47;55.53
9091;BME280;4581;42.416;25.598;2022-10-31T00:21:20;98602.47;;;16.52;54.81
9091;BME280;4581;42.416;25.598;2022-10-31T00:23:47;98597.00;;;16.46;55.37
9091;BME280;4581;42.416;25.598;2022-10-31T00:26:14;98597.66;;;16.48;55.39
9091;BME280;4581;42.416;25.598;2022-10-31T00:28:40;98604.78;;;16.49;55.87
9091;BME280;4581;42.416;25.598;2022-10-31T00:31:08;98592.19;;;16.41;56.92
9091;BME280;4581;42.416;25.598;2022-10-31T00:33:37;98594.72;;;16.29;56.93
9091;BME280;4581;42.416;25.598;2022-10-31T00:36:06;98597.88;;;16.26;57.30
9091;BME280;4581;42.416;25.598;2022-10-31T00:38:33;98598.72;;;16.20;58.15
9091;BME280;4581;42.416;25.598;2022-10-31T00:40:59;98597.25;;;16.18;58.15
9091;BME280;4581;42.416;25.598;2022-10-31T00:43:26;98601.22;;;16.15;58.41
9091;BME280;4581;42.416;25.598;2022-10-31T00:45:53;98597.25;;;16.18;58.99
9091;BME280;4581;42.416;25.598;2022-10-31T00:48:19;98588.66;;;16.14;58.79
9091;BME280;4581;42.416;25.598;2022-10-31T00:50:46;98599.78;;;16.13;58.43
9091;BME280;4581;42.416;25.598;2022-10-31T00:53:13;98596.00;;;16.14;58.04
9091;BME280;4581;42.416;25.598;2022-10-31T00:55:39;98597.47;;;16.16;57.96
9091;BME280;4581;42.416;25.598;2022-10-31T00:58:06;98587.84;;;16.14;57.41
9091;BME280;4581;42.416;25.598;2022-10-31T01:00:33;98597.06;;;16.13;57.00
9091;BME280;4581;42.416;25.598;2022-10-31T01:02:59;98598.09;;;16.18;56.26
9091;BME280;4581;42.416;25.598;2022-10-31T01:05:26;98598.28;;;16.10;56.72
9091;BME280;4581;42.416;25.598;2022-10-31T01:07:53;98602.06;;;16.09;57.27
9091;BME280;4581;42.416;25.598;2022-10-31T01:10:20;98600.41;;;16.08;57.18
9091;BME280;4581;42.416;25.598;2022-10-31T01:12:48;98606.22;;;16.05;57.44
9091;BME280;4581;42.416;25.598;2022-10-31T01:15:18;98603.72;;;16.10;54.99
9091;BME280;4581;42.416;25.598;2022-10-31T01:17:45;98612.13;;;16.09;55.12
9091;BME280;4581;42.416;25.598;2022-10-31T01:20:13;98605.84;;;16.08;55.70
9091;BME280;4581;42.416;25.598;2022-10-31T01:22:40;98597.44;;;16.10;56.17
9091;BME280;4581;42.416;25.598;2022-10-31T01:25:07;98598.53;;;16.09;56.43
9091;BME280;4581;42.416;25.598;2022-10-31T01:27:34;98598.94;;;16.19;56.00
9091;BME280;4581;42.416;25.598;2022-10-31T01:30:01;98602.06;;;16.16;56.68
9091;BME280;4581;42.416;25.598;2022-10-31T01:32:28;98605.84;;;16.15;56.99
9091;BME280;4581;42.416;25.598;2022-10-31T01:34:58;98593.28;;;16.01;57.42
9091;BME280;4581;42.416;25.598;2022-10-31T01:37:25;98607.06;;;16.06;57.37
9091;BME280;4581;42.416;25.598;2022-10-31T01:39:51;98605.44;;;16.05;57.53
9091;BME280;4581;42.416;25.598;2022-10-31T01:42:20;98605.00;;;16.08;57.18
9091;BME280;4581;42.416;25.598;2022-10-31T01:44:59;98609.19;;;16.04;59.20
9091;BME280;4581;42.416;25.598;2022-10-31T01:47:35;98614.81;;;15.96;57.76
9091;BME280;4581;42.416;25.598;2022-10-31T01:50:06;98617.53;;;15.96;57.04
9091;BME280;4581;42.416;25.598;2022-10-31T01:52:39;98615.44;;;15.91;57.43
9091;BME280;4581;42.416;25.598;2022-10-31T01:55:30;98621.72;;;15.91;57.88
9091;BME280;4581;42.416;25.598;2022-10-31T01:58:03;98615.03;;;15.94;58.44
9091;BME280;4581;42.416;25.598;2022-10-31T02:00:31;98629.03;;;15.91;58.85
9091;BME280;4581;42.416;25.598;2022-10-31T02:02:58;98620.22;;;15.89;58.50
9091;BME280;4581;42.416;25.598;2022-10-31T02:05:28;98611.03;;;15.83;58.34
9091;BME280;4581;42.416;25.598;2022-10-31T02:08:21;98612.91;;;15.89;58.95
9091;BME280;4581;42.416;25.598;2022-10-31T02:10:49;98614.38;;;15.85;58.91
9091;BME280;4581;42.416;25.598;2022-10-31T02:13:16;98613.34;;;15.80;59.37
9091;BME280;4581;42.416;25.598;2022-10-31T02:15:45;98612.91;;;15.76;59.35
9091;BME280;4581;42.416;25.598;2022-10-31T02:18:13;98615.84;;;15.75;58.45
9091;BME280;4581;42.416;25.598;2022-10-31T02:31:49;98619.81;;;15.79;60.02
9091;BME280;4581;42.416;25.598;2022-10-31T02:42:22;98615.00;;;15.74;61.43
9091;BME280;4581;42.416;25.598;2022-10-31T02:45:07;98618.13;;;15.71;61.15
9091;BME280;4581;42.416;25.598;2022-10-31T02:47:38;98625.44;;;15.71;61.38
9091;BME280;4581;42.416;25.598;2022-10-31T02:50:18;98625.03;;;15.74;62.01
9091;BME280;4581;42.416;25.598;2022-10-31T02:52:50;98630.88;;;15.71;61.98
9091;BME280;4581;42.416;25.598;2022-10-31T02:58:01;98631.72;;;15.71;60.46
9091;BME280;4581;42.416;25.598;2022-10-31T03:00:35;98636.09;;;15.66;60.52
9091;BME280;4581;42.416;25.598;2022-10-31T03:03:53;98635.47;;;15.70;61.05
9091;BME280;4581;42.416;25.598;2022-10-31T03:06:05;98638.41;;;15.75;60.11
9091;BME280;4581;42.416;25.598;2022-10-31T03:09:03;98636.13;;;15.72;59.90
9091;BME280;4581;42.416;25.598;2022-10-31T03:11:37;98644.69;;;15.76;59.22
9091;BME280;4581;42.416;25.598;2022-10-31T03:14:14;98638.41;;;15.75;59.44
9091;BME280;4581;42.416;25.598;2022-10-31T03:16:49;98643.88;;;15.82;59.43
9091;BME280;4581;42.416;25.598;2022-10-31T03:19:29;98648.91;;;15.91;59.09
9091;BME280;4581;42.416;25.598;2022-10-31T03:21:58;98649.72;;;15.85;59.07
9091;BME280;4581;42.416;25.598;2022-10-31T03:24:31;98650.38;;;15.87;59.95
9091;BME280;4581;42.416;25.598;2022-10-31T03:26:59;98653.94;;;15.88;59.99
9091;BME280;4581;42.416;25.598;2022-10-31T03:29:30;98648.25;;;15.83;60.58
9091;BME280;4581;42.416;25.598;2022-10-31T03:32:33;98647.63;;;15.81;60.66
9091;BME280;4581;42.416;25.598;2022-10-31T03:35:02;98648.25;;;15.76;60.61
9091;BME280;4581;42.416;25.598;2022-10-31T03:37:32;98656.00;;;15.79;60.49
9091;BME280;4581;42.416;25.598;2022-10-31T03:40:01;98654.53;;;15.83;59.74
9091;BME280;4581;42.416;25.598;2022-10-31T03:42:33;98658.94;;;15.84;60.07
9091;BME280;4581;42.416;25.598;2022-10-31T03:45:05;98650.38;;;15.87;60.34
9091;BME280;4581;42.416;25.598;2022-10-31T03:47:34;98650.59;;;15.93;59.71
9091;BME280;4581;42.416;25.598;2022-10-31T03:50:04;98648.91;;;15.98;60.04
9091;BME280;4581;42.416;25.598;2022-10-31T03:52:48;98657.72;;;16.00;60.45
9091;BME280;4581;42.416;25.598;2022-10-31T03:55:23;98645.16;;;15.99;60.74
9091;BME280;4581;42.416;25.598;2022-10-31T04:00:17;98649.97;;;16.04;60.48
9091;BME280;4581;42.416;25.598;2022-10-31T04:02:53;98651.84;;;16.10;60.21
9091;BME280;4581;42.416;25.598;2022-10-31T04:05:22;98659.38;;;16.21;57.47
9091;BME280;4581;42.416;25.598;2022-10-31T04:07:52;98654.41;;;16.24;57.00
9091;BME280;4581;42.416;25.598;2022-10-31T04:10:21;98650.81;;;16.17;57.20
9091;BME280;4581;42.416;25.598;2022-10-31T04:13:01;98655.63;;;16.22;57.88
9091;BME280;4581;42.416;25.598;2022-10-31T04:15:31;98663.19;;;16.20;58.10
9091;BME280;4581;42.416;25.598;2022-10-31T04:17:59;98673.66;;;16.16;58.34
9091;BME280;4581;42.416;25.598;2022-10-31T04:20:33;98666.53;;;16.15;58.67
9091;BME280;4581;42.416;25.598;2022-10-31T04:23:00;98666.28;;;16.10;59.45
9091;BME280;4581;42.416;25.598;2022-10-31T04:25:27;98675.28;;;16.11;59.97
9091;BME280;4581;42.416;25.598;2022-10-31T04:27:54;98671.31;;;16.13;61.02
9091;BME280;4581;42.416;25.598;2022-10-31T04:30:21;98660.84;;;16.10;60.48
9091;BME280;4581;42.416;25.598;2022-10-31T04:32:47;98673.63;;;16.10;61.09
9091;BME280;4581;42.416;25.598;2022-10-31T04:35:14;98676.75;;;16.13;61.68
9091;BME280;4581;42.416;25.598;2022-10-31T04:37:42;98679.94;;;16.17;60.09
9091;BME280;4581;42.416;25.598;2022-10-31T04:40:09;98686.59;;;16.21;60.01
9091;BME280;4581;42.416;25.598;2022-10-31T04:42:35;98691.22;;;16.27;60.08
9091;BME280;4581;42.416;25.598;2022-10-31T04:45:02;98694.13;;;16.19;60.27
9091;BME280;4581;42.416;25.598;2022-10-31T04:47:31;98695.00;;;16.13;60.26
9091;BME280;4581;42.416;25.598;2022-10-31T04:49:59;98689.31;;;16.14;60.45
9091;BME280;4581;42.416;25.598;2022-10-31T04:52:25;98692.25;;;16.13;60.25
9091;BME280;4581;42.416;25.598;2022-10-31T04:54:52;98705.63;;;16.08;60.62
9091;BME280;4581;42.416;25.598;2022-10-31T04:57:18;98703.31;;;15.91;61.34
9091;BME280;4581;42.416;25.598;2022-10-31T04:59:45;98702.47;;;15.91;61.80
9091;BME280;4581;42.416;25.598;2022-10-31T05:02:11;98711.47;;;15.98;59.96
9091;BME280;4581;42.416;25.598;2022-10-31T05:04:38;98721.53;;;16.11;60.21
9091;BME280;4581;42.416;25.598;2022-10-31T05:07:05;98727.16;;;16.09;60.73
9091;BME280;4581;42.416;25.598;2022-10-31T05:09:31;98724.69;;;16.14;60.29
9091;BME280;4581;42.416;25.598;2022-10-31T05:11:58;98724.91;;;16.13;60.82
9091;BME280;4581;42.416;25.598;2022-10-31T05:14:24;98733.25;;;16.11;61.11
9091;BME280;4581;42.416;25.598;2022-10-31T05:16:51;98735.97;;;16.18;61.02
9091;BME280;4581;42.416;25.598;2022-10-31T05:19:18;98744.78;;;16.20;60.95
9091;BME280;4581;42.416;25.598;2022-10-31T05:21:44;98737.47;;;16.33;60.87
9091;BME280;4581;42.416;25.598;2022-10-31T05:24:11;98744.22;;;16.44;60.90
9091;BME280;4581;42.416;25.598;2022-10-31T05:26:37;98752.41;;;16.64;60.11
9091;BME280;4581;42.416;25.598;2022-10-31T05:29:04;98761.41;;;16.71;59.89
9091;BME280;4581;42.416;25.598;2022-10-31T05:31:30;98759.75;;;16.83;59.49
9091;BME280;4581;42.416;25.598;2022-10-31T05:33:57;98761.19;;;16.85;59.73
9091;BME280;4581;42.416;25.598;2022-10-31T05:36:24;98757.88;;;16.97;59.19
9091;BME280;4581;42.416;25.598;2022-10-31T05:38:50;98761.63;;;17.09;59.33
9091;BME280;4581;42.416;25.598;2022-10-31T05:41:17;98762.25;;;17.04;59.89
9091;BME280;4581;42.416;25.598;2022-10-31T05:43:45;98768.09;;;17.01;60.71
9091;BME280;4581;42.416;25.598;2022-10-31T05:46:11;98768.34;;;17.13;60.49
9091;BME280;4581;42.416;25.598;2022-10-31T05:48:38;98778.34;;;17.25;60.53
9091;BME280;4581;42.416;25.598;2022-10-31T05:51:04;98782.56;;;17.28;59.84
9091;BME280;4581;42.416;25.598;2022-10-31T05:53:31;98783.38;;;17.35;59.35
9091;BME280;4581;42.416;25.598;2022-10-31T05:55:58;98786.91;;;17.42;58.85
9091;BME280;4581;42.416;25.598;2022-10-31T05:58:24;98788.38;;;17.51;57.88
9091;BME280;4581;42.416;25.598;2022-10-31T06:00:52;98785.84;;;17.63;57.65
9091;BME280;4581;42.416;25.598;2022-10-31T06:03:19;98790.91;;;17.59;58.38
9091;BME280;4581;42.416;25.598;2022-10-31T06:05:45;98794.84;;;17.70;57.92
9091;BME280;4581;42.416;25.598;2022-10-31T06:08:19;98794.63;;;17.85;58.79
9091;BME280;4581;42.416;25.598;2022-10-31T06:10:45;98799.59;;;18.01;59.13
9091;BME280;4581;42.416;25.598;2022-10-31T06:13:12;98797.81;;;18.19;58.83
9091;BME280;4581;42.416;25.598;2022-10-31T06:15:39;98811.59;;;18.31;58.98
9091;BME280;4581;42.416;25.598;2022-10-31T06:18:08;98820.44;;;18.33;58.15
9091;BME280;4581;42.416;25.598;2022-10-31T06:20:34;98811.69;;;18.11;58.85
9091;BME280;4581;42.416;25.598;2022-10-31T06:23:01;98817.66;;;17.95;58.36
9091;BME280;4581;42.416;25.598;2022-10-31T06:25:29;98825.00;;;17.95;57.26
9091;BME280;4581;42.416;25.598;2022-10-31T06:27:55;98828.84;;;17.54;62.12
9091;BME280;4581;42.416;25.598;2022-10-31T06:30:22;98828.22;;;17.65;60.43
9091;BME280;4581;42.416;25.598;2022-10-31T06:32:48;98821.31;;;17.63;59.68
9091;BME280;4581;42.416;25.598;2022-10-31T06:35:16;98822.97;;;17.70;57.93
9091;BME280;4581;42.416;25.598;2022-10-31T06:37:42;98819.41;;;17.70;58.41
9091;BME280;4581;42.416;25.598;2022-10-31T06:40:13;98824.22;;;17.61;59.17
9091;BME280;4581;42.416;25.598;2022-10-31T06:42:40;98824.69;;;17.65;60.23
9091;BME280;4581;42.416;25.598;2022-10-31T06:45:07;98825.72;;;17.57;60.80
9091;BME280;4581;42.416;25.598;2022-10-31T06:47:33;98833.91;;;17.44;59.37
9091;BME280;4581;42.416;25.598;2022-10-31T06:50:11;98836.22;;;17.41;58.32
9091;BME280;4581;42.416;25.598;2022-10-31T06:52:37;98847.72;;;17.49;58.15
9091;BME280;4581;42.416;25.598;2022-10-31T06:55:04;98842.28;;;17.56;56.95
9091;BME280;4581;42.416;25.598;2022-10-31T06:57:31;98851.69;;;17.53;57.59
9091;BME280;4581;42.416;25.598;2022-10-31T06:59:57;98845.84;;;17.56;57.67
9091;BME280;4581;42.416;25.598;2022-10-31T07:02:24;98841.47;;;17.22;57.74
9091;BME280;4581;42.416;25.598;2022-10-31T07:04:51;98838.09;;;17.40;56.98
9091;BME280;4581;42.416;25.598;2022-10-31T07:07:17;98843.94;;;17.50;56.67
9091;BME280;4581;42.416;25.598;2022-10-31T07:09:47;98835.34;;;17.66;56.19
9091;BME280;4581;42.416;25.598;2022-10-31T07:12:15;98838.72;;;17.68;57.77
9091;BME280;4581;42.416;25.598;2022-10-31T07:14:41;98852.09;;;17.83;56.91
9091;BME280;4581;42.416;25.598;2022-10-31T07:17:08;98845.56;;;17.97;56.09
9091;BME280;4581;42.416;25.598;2022-10-31T07:19:35;98834.81;;;18.02;59.18
9091;BME280;4581;42.416;25.598;2022-10-31T07:22:01;98841.47;;;18.19;57.86
9091;BME280;4581;42.416;25.598;2022-10-31T07:24:28;98838.84;;;18.44;56.16
9091;BME280;4581;42.416;25.598;2022-10-31T07:26:55;98840.28;;;18.47;54.22
9091;BME280;4581;42.416;25.598;2022-10-31T07:29:22;98839.44;;;18.46;57.19
9091;BME280;4581;42.416;25.598;2022-10-31T07:31:48;98845.53;;;18.48;56.43
9091;BME280;4581;42.416;25.598;2022-10-31T07:34:15;98832.06;;;18.60;53.39
9091;BME280;4581;42.416;25.598;2022-10-31T07:36:42;98841.22;;;18.72;52.82
9091;BME280;4581;42.416;25.598;2022-10-31T07:39:08;98841.09;;;18.92;53.71
9091;BME280;4581;42.416;25.598;2022-10-31T07:41:35;98838.09;;;19.00;53.34
9091;BME280;4581;42.416;25.598;2022-10-31T07:44:01;98841.72;;;19.18;51.79
9091;BME280;4581;42.416;25.598;2022-10-31T07:46:28;98849.72;;;19.20;52.06
9091;BME280;4581;42.416;25.598;2022-10-31T07:48:55;98840.22;;;19.47;50.87
9091;BME280;4581;42.416;25.598;2022-10-31T07:51:21;98845.13;;;19.63;52.27
9091;BME280;4581;42.416;25.598;2022-10-31T07:53:49;98847.91;;;19.82;51.78
9091;BME280;4581;42.416;25.598;2022-10-31T07:56:16;98847.81;;;20.06;50.30
9091;BME280;4581;42.416;25.598;2022-10-31T07:58:42;98843.19;;;20.25;50.27
9091;BME280;4581;42.416;25.598;2022-10-31T08:01:09;98847.22;;;20.41;49.60
9091;BME280;4581;42.416;25.598;2022-10-31T08:03:41;98848.31;;;20.51;49.51
9091;BME280;4581;42.416;25.598;2022-10-31T08:06:07;98854.84;;;20.69;48.84
9091;BME280;4581;42.416;25.598;2022-10-31T08:08:34;98842.00;;;20.81;49.26
9091;BME280;4581;42.416;25.598;2022-10-31T08:11:03;98846.09;;;20.90;50.72
9091;BME280;4581;42.416;25.598;2022-10-31T08:13:30;98853.13;;;20.86;49.28
9091;BME280;4581;42.416;25.598;2022-10-31T08:15:57;98854.41;;;20.83;48.25
9091;BME280;4581;42.416;25.598;2022-10-31T08:18:30;98858.59;;;20.86;49.97
9091;BME280;4581;42.416;25.598;2022-10-31T08:20:56;98853.88;;;21.05;48.28
9091;BME280;4581;42.416;25.598;2022-10-31T08:23:23;98853.38;;;21.26;48.96
9091;BME280;4581;42.416;25.598;2022-10-31T08:25:50;98856.72;;;21.39;47.54
9091;BME280;4581;42.416;25.598;2022-10-31T08:28:16;98851.00;;;21.53;46.88
9091;BME280;4581;42.416;25.598;2022-10-31T08:30:43;98855.06;;;21.50;47.48
9091;BME280;4581;42.416;25.598;2022-10-31T08:33:15;98859.00;;;21.66;46.91
9091;BME280;4581;42.416;25.598;2022-10-31T08:35:41;98851.47;;;21.84;47.08
9091;BME280;4581;42.416;25.598;2022-10-31T08:38:10;98852.69;;;22.00;46.33
9091;BME280;4581;42.416;25.598;2022-10-31T08:40:38;98853.03;;;22.04;46.72
9091;BME280;4581;42.416;25.598;2022-10-31T08:43:09;98854.78;;;22.21;45.84
9091;BME280;4581;42.416;25.598;2022-10-31T08:45:37;98851.97;;;22.45;45.30
9091;BME280;4581;42.416;25.598;2022-10-31T08:48:06;98855.13;;;22.65;45.21
9091;BME280;4581;42.416;25.598;2022-10-31T08:50:34;98862.59;;;22.53;45.53
9091;BME280;4581;42.416;25.598;2022-10-31T08:53:15;98859.66;;;22.71;44.59
9091;BME280;4581;42.416;25.598;2022-10-31T08:55:42;98857.31;;;22.91;45.08
9091;BME280;4581;42.416;25.598;2022-10-31T08:58:12;98854.44;;;23.14;44.87
9091;BME280;4581;42.416;25.598;2022-10-31T09:00:39;98853.19;;;23.72;42.42
9091;BME280;4581;42.416;25.598;2022-10-31T09:03:10;98865.56;;;24.46;40.85
9091;BME280;4581;42.416;25.598;2022-10-31T09:05:37;98862.38;;;24.81;39.13
9091;BME280;4581;42.416;25.598;2022-10-31T09:08:05;98862.88;;;25.00;38.82
9091;BME280;4581;42.416;25.598;2022-10-31T09:10:40;98862.09;;;25.31;38.50
9091;BME280;4581;42.416;25.598;2022-10-31T09:13:10;98863.00;;;25.74;37.92
9091;BME280;4581;42.416;25.598;2022-10-31T09:15:39;98867.16;;;26.18;37.25
9091;BME280;4581;42.416;25.598;2022-10-31T09:18:06;98864.94;;;26.72;35.16
9091;BME280;4581;42.416;25.598;2022-10-31T09:20:35;98866.66;;;26.83;35.77
9091;BME280;4581;42.416;25.598;2022-10-31T09:23:09;98867.00;;;27.07;34.40
9091;BME280;4581;42.416;25.598;2022-10-31T09:25:36;98873.06;;;26.84;35.01
9091;BME280;4581;42.416;25.598;2022-10-31T09:28:05;98870.41;;;26.52;35.91
9091;BME280;4581;42.416;25.598;2022-10-31T09:30:33;98869.94;;;26.18;36.17
9091;BME280;4581;42.416;25.598;2022-10-31T09:33:05;98863.53;;;26.07;36.58
9091;BME280;4581;42.416;25.598;2022-10-31T09:35:32;98864.75;;;25.85;36.47
9091;BME280;4581;42.416;25.598;2022-10-31T09:38:01;98861.19;;;25.89;37.06
9091;BME280;4581;42.416;25.598;2022-10-31T09:44:07;98856.47;;;25.85;36.01
9091;BME280;4581;42.416;25.598;2022-10-31T09:46:58;98865.66;;;25.95;36.35
9091;BME280;4581;42.416;25.598;2022-10-31T09:49:50;98859.63;;;26.08;35.95
9091;BME280;4581;42.416;25.598;2022-10-31T09:52:28;98859.25;;;26.37;36.23
9091;BME280;4581;42.416;25.598;2022-10-31T09:55:05;98859.56;;;27.73;33.97
9091;BME280;4581;42.416;25.598;2022-10-31T09:57:36;98852.25;;;28.97;31.07
9091;BME280;4581;42.416;25.598;2022-10-31T10:00:05;98855.22;;;29.16;31.66
9091;BME280;4581;42.416;25.598;2022-10-31T10:02:38;98852.59;;;28.91;32.00
9091;BME280;4581;42.416;25.598;2022-10-31T10:05:12;98857.72;;;28.58;32.44
9091;BME280;4581;42.416;25.598;2022-10-31T10:07:55;98851.09;;;28.49;32.32
9091;BME280;4581;42.416;25.598;2022-10-31T10:10:58;98849.28;;;28.09;31.92
9091;BME280;4581;42.416;25.598;2022-10-31T10:19:18;98838.25;;;27.74;33.23
9091;BME280;4581;42.416;25.598;2022-10-31T10:30:02;98834.09;;;27.71;32.40
9091;BME280;4581;42.416;25.598;2022-10-31T10:32:45;98833.00;;;27.62;32.47
9091;BME280;4581;42.416;25.598;2022-10-31T10:37:46;98824.00;;;28.31;32.83
9091;BME280;4581;42.416;25.598;2022-10-31T10:40:24;98834.56;;;28.24;32.38
9091;BME280;4581;42.416;25.598;2022-10-31T10:45:43;98824.78;;;29.01;31.56
9091;BME280;4581;42.416;25.598;2022-10-31T10:54:49;98829.06;;;27.99;31.76
9091;BME280;4581;42.416;25.598;2022-10-31T11:00:19;98831.31;;;28.66;31.51
9091;BME280;4581;42.416;25.598;2022-10-31T11:02:47;98824.09;;;29.14;31.43
9091;BME280;4581;42.416;25.598;2022-10-31T11:05:42;98827.69;;;29.53;29.89
9091;BME280;4581;42.416;25.598;2022-10-31T11:08:07;98827.13;;;29.56;29.67
9091;BME280;4581;42.416;25.598;2022-10-31T11:10:35;98830.28;;;29.45;30.76
9091;BME280;4581;42.416;25.598;2022-10-31T11:15:32;98830.91;;;34.65;23.65
9091;BME280;4581;42.416;25.598;2022-10-31T11:18:01;98829.88;;;36.24;21.62
9091;BME280;4581;42.416;25.598;2022-10-31T11:20:35;98838.84;;;37.14;20.91
9091;BME280;4581;42.416;25.598;2022-10-31T11:23:10;98847.97;;;38.18;20.24
9091;BME280;4581;42.416;25.598;2022-10-31T11:25:59;98838.31;;;38.07;20.02
9091;BME280;4581;42.416;25.598;2022-10-31T11:28:27;98832.13;;;38.38;20.06
9091;BME280;4581;42.416;25.598;2022-10-31T11:30:59;98823.22;;;38.97;18.73
9091;BME280;4581;42.416;25.598;2022-10-31T11:33:30;98818.00;;;36.19;21.42
9091;BME280;4581;42.416;25.598;2022-10-31T11:35:58;98824.56;;;35.42;21.68
9091;BME280;4581;42.416;25.598;2022-10-31T11:38:33;98820.09;;;36.68;20.96
9091;BME280;4581;42.416;25.598;2022-10-31T11:43:30;98818.44;;;35.83;21.97
9091;BME280;4581;42.416;25.598;2022-10-31T11:45:57;98815.09;;;36.74;21.79
9091;BME280;4581;42.416;25.598;2022-10-31T11:48:24;98806.44;;;36.11;21.59
9091;BME280;4581;42.416;25.598;2022-10-31T11:50:55;98806.91;;;36.60;21.57
9091;BME280;4581;42.416;25.598;2022-10-31T11:53:33;98816.31;;;37.35;20.45
9091;BME280;4581;42.416;25.598;2022-10-31T11:56:15;98817.25;;;37.60;19.88
9091;BME280;4581;42.416;25.598;2022-10-31T11:58:42;98819.44;;;36.92;20.33
9091;BME280;4581;42.416;25.598;2022-10-31T12:01:24;98817.69;;;36.11;20.71
9091;BME280;4581;42.416;25.598;2022-10-31T12:04:06;98814.72;;;34.62;22.58
9091;BME280;4581;42.416;25.598;2022-10-31T12:06:38;98800.69;;;32.80;24.59
9091;BME280;4581;42.416;25.598;2022-10-31T12:09:38;98803.09;;;31.08;26.46
9091;BME280;4581;42.416;25.598;2022-10-31T12:39:42;98792.25;;;29.98;27.85
9091;BME280;4581;42.416;25.598;2022-10-31T12:55:55;98780.03;;;27.79;31.07
9091;BME280;4581;42.416;25.598;2022-10-31T12:58:26;98782.75;;;28.04;31.04
9091;BME280;4581;42.416;25.598;2022-10-31T13:01:09;98783.00;;;28.08;31.67
9091;BME280;4581;42.416;25.598;2022-10-31T13:03:53;98786.31;;;28.05;30.96
9091;BME280;4581;42.416;25.598;2022-10-31T13:06:32;98785.00;;;27.77;31.10
9091;BME280;4581;42.416;25.598;2022-10-31T13:09:02;98780.34;;;27.62;32.18
9091;BME280;4581;42.416;25.598;2022-10-31T13:11:35;98783.91;;;27.88;31.85
9091;BME280;4581;42.416;25.598;2022-10-31T13:14:25;98778.06;;;29.08;30.40
9091;BME280;4581;42.416;25.598;2022-10-31T13:16:54;98791.03;;;30.09;28.86
9091;BME280;4581;42.416;25.598;2022-10-31T13:19:25;98791.22;;;30.60;28.03
9091;BME280;4581;42.416;25.598;2022-10-31T13:24:43;98790.81;;;32.61;25.14
9091;BME280;4581;42.416;25.598;2022-10-31T13:27:22;98797.88;;;31.85;25.29
9091;BME280;4581;42.416;25.598;2022-10-31T13:30:15;98789.13;;;30.28;27.89
9091;BME280;4581;42.416;25.598;2022-10-31T13:35:33;98778.91;;;27.85;31.20
9091;BME280;4581;42.416;25.598;2022-10-31T13:41:00;98779.50;;;26.86;32.80
9091;BME280;4581;42.416;25.598;2022-10-31T13:45:57;98776.00;;;26.28;33.16
9091;BME280;4581;42.416;25.598;2022-10-31T13:51:02;98785.41;;;25.80;34.56
9091;BME280;4581;42.416;25.598;2022-10-31T13:54:06;98783.88;;;25.52;34.84
9091;BME280;4581;42.416;25.598;2022-10-31T13:56:34;98785.78;;;25.20;35.60
9091;BME280;4581;42.416;25.598;2022-10-31T13:59:10;98779.56;;;24.98;35.39
9091;BME280;4581;42.416;25.598;2022-10-31T14:01:49;98772.38;;;24.70;36.24
9091;BME280;4581;42.416;25.598;2022-10-31T14:04:23;98782.19;;;24.61;36.40
9091;BME280;4581;42.416;25.598;2022-10-31T14:07:07;98781.25;;;24.50;37.00
9091;BME280;4581;42.416;25.598;2022-10-31T14:12:04;98786.22;;;24.27;37.66
9091;BME280;4581;42.416;25.598;2022-10-31T14:14:39;98790.97;;;24.31;36.89
9091;BME280;4581;42.416;25.598;2022-10-31T14:17:17;98788.31;;;24.19;38.33
9091;BME280;4581;42.416;25.598;2022-10-31T14:22:39;98785.16;;;23.89;38.04
9091;BME280;4581;42.416;25.598;2022-10-31T14:25:43;98793.53;;;23.77;39.18
9091;BME280;4581;42.416;25.598;2022-10-31T14:28:33;98788.47;;;23.69;39.84
9091;BME280;4581;42.416;25.598;2022-10-31T14:31:00;98788.81;;;23.56;40.14
9091;BME280;4581;42.416;25.598;2022-10-31T14:33:28;98779.38;;;23.36;40.53
9091;BME280;4581;42.416;25.598;2022-10-31T14:45:16;98788.41;;;22.98;40.74
9091;BME280;4581;42.416;25.598;2022-10-31T14:50:47;98796.88;;;22.79;41.37
9091;BME280;4581;42.416;25.598;2022-10-31T14:53:41;98795.63;;;22.70;41.93
9091;BME280;4581;42.416;25.598;2022-10-31T14:56:11;98785.84;;;22.63;41.24
9091;BME280;4581;42.416;25.598;2022-10-31T14:58:41;98795.66;;;22.59;41.76
9091;BME280;4581;42.416;25.598;2022-10-31T15:01:24;98799.25;;;22.48;41.87
9091;BME280;4581;42.416;25.598;2022-10-31T15:03:57;98801.94;;;22.43;42.50
9091;BME280;4581;42.416;25.598;2022-10-31T15:06:47;98800.53;;;22.28;42.56
9091;BME280;4581;42.416;25.598;2022-10-31T15:09:26;98806.66;;;22.19;43.31
9091;BME280;4581;42.416;25.598;2022-10-31T15:11:53;98810.53;;;22.06;43.91
9091;BME280;4581;42.416;25.598;2022-10-31T15:14:28;98814.38;;;21.93;43.89
9091;BME280;4581;42.416;25.598;2022-10-31T15:17:01;98810.28;;;21.84;44.08
9091;BME280;4581;42.416;25.598;2022-10-31T15:19:30;98812.69;;;21.81;43.92
9091;BME280;4581;42.416;25.598;2022-10-31T15:21:59;98824.75;;;21.68;43.94
9091;BME280;4581;42.416;25.598;2022-10-31T15:24:34;98822.38;;;21.60;44.41
9091;BME280;4581;42.416;25.598;2022-10-31T15:27:01;98827.50;;;21.45;44.65
9091;BME280;4581;42.416;25.598;2022-10-31T15:29:31;98824.75;;;21.45;44.75
9091;BME280;4581;42.416;25.598;2022-10-31T15:32:18;98825.22;;;21.30;44.93
9091;BME280;4581;42.416;25.598;2022-10-31T15:34:46;98830.56;;;21.14;45.46
9091;BME280;4581;42.416;25.598;2022-10-31T15:37:15;98831.25;;;21.09;46.21
9091;BME280;4581;42.416;25.598;2022-10-31T15:39:46;98828.50;;;21.09;45.82
9091;BME280;4581;42.416;25.598;2022-10-31T15:44:49;98835.13;;;20.90;46.62
9091;BME280;4581;42.416;25.598;2022-10-31T15:47:20;98835.59;;;20.87;46.54